sensor_id;sensor_type;location;lat;lon;timestamp;temperature;humidity
2162;DHT22;1087;50.226;8.682;2022-10-16T00:00:52;17.30;99.90
2162;DHT22;1087;50.226;8.682;2022-10-16T00:03:18;17.20;99.90
2162;DHT22;1087;50.226;8.682;2022-10-16T00:05:44;17.30;99.90
2162;DHT22;1087;50.226;8.682;2022-10-16T00:08:11;17.20;99.90
2162;DHT22;1087;50.226;8.682;2022-10-16T00:10:37;17.30;99.90
2162;DHT22;1087;50.226;8.682;2022-10-16T00:13:03;17.20;99.90
2162;DHT22;1087;50.226;8.682;2022-10-16T00:15:29;17.30;99.90
2162;DHT22;1087;50.226;8.682;2022-10-16T00:17:54;17.20;99.90
2162;DHT22;1087;50.226;8.682;2022-10-16T00:20:20;17.20;99.90
2162;DHT22;1087;50.226;8.682;2022-10-16T00:22:46;17.20;99.90
2162;DHT22;1087;50.226;8.682;2022-10-16T00:25:11;17.10;99.90
2162;DHT22;1087;50.226;8.682;2022-10-16T00:27:37;17.10;99.90
2162;DHT22;1087;50.226;8.682;2022-10-16T00:30:02;17.00;99.90
2162;DHT22;1087;50.226;8.682;2022-10-16T00:32:28;17.10;99.90
2162;DHT22;1087;50.226;8.682;2022-10-16T00:34:54;17.10;99.90
2162;DHT22;1087;50.226;8.682;2022-10-16T00:37:20;17.20;99.90
2162;DHT22;1087;50.226;8.682;2022-10-16T00:39:45;17.20;99.90
2162;DHT22;1087;50.226;8.682;2022-10-16T00:42:16;17.20;99.90
2162;DHT22;1087;50.226;8.682;2022-10-16T00:44:48;17.20;99.90
2162;DHT22;1087;50.226;8.682;2022-10-16T00:47:39;17.20;99.90
2162;DHT22;1087;50.226;8.682;2022-10-16T00:50:29;17.20;99.90
2162;DHT22;1087;50.226;8.682;2022-10-16T00:52:56;17.10;99.90
2162;DHT22;1087;50.226;8.682;2022-10-16T00:55:22;17.10;99.90
2162;DHT22;1087;50.226;8.682;2022-10-16T00:57:49;17.10;99.90
2162;DHT22;1087;50.226;8.682;2022-10-16T01:00:19;17.20;99.90
2162;DHT22;1087;50.226;8.682;2022-10-16T01:02:51;17.20;99.90
2162;DHT22;1087;50.226;8.682;2022-10-16T01:05:16;17.20;99.90
2162;DHT22;1087;50.226;8.682;2022-10-16T01:07:52;17.20;99.90
2162;DHT22;1087;50.226;8.682;2022-10-16T01:10:25;17.20;99.90
2162;DHT22;1087;50.226;8.682;2022-10-16T01:13:03;17.20;99.90
2162;DHT22;1087;50.226;8.682;2022-10-16T01:15:36;17.10;99.90
2162;DHT22;1087;50.226;8.682;2022-10-16T01:21:01;17.20;99.90
2162;DHT22;1087;50.226;8.682;2022-10-16T01:24:37;17.20;99.90
2162;DHT22;1087;50.226;8.682;2022-10-16T01:29:44;17.10;99.90
2162;DHT22;1087;50.226;8.682;2022-10-16T01:32:38;17.10;99.90
2162;DHT22;1087;50.226;8.682;2022-10-16T01:37:38;17.20;99.90
2162;DHT22;1087;50.226;8.682;2022-10-16T01:40:09;17.20;99.90
2162;DHT22;1087;50.226;8.682;2022-10-16T01:42:41;17.20;99.90
2162;DHT22;1087;50.226;8.682;2022-10-16T01:45:08;17.20;99.90
2162;DHT22;1087;50.226;8.682;2022-10-16T01:47:37;17.20;99.90
2162;DHT22;1087;50.226;8.682;2022-10-16T01:50:05;17.20;99.90
2162;DHT22;1087;50.226;8.682;2022-10-16T01:52:37;17.20;99.90
2162;DHT22;1087;50.226;8.682;2022-10-16T01:55:06;17.20;99.90
2162;DHT22;1087;50.226;8.682;2022-10-16T01:57:39;17.20;99.90
2162;DHT22;1087;50.226;8.682;2022-10-16T02:00:10;17.20;99.90
2162;DHT22;1087;50.226;8.682;2022-10-16T02:02:39;17.20;99.90
2162;DHT22;1087;50.226;8.682;2022-10-16T02:05:18;17.20;99.90
2162;DHT22;1087;50.226;8.682;2022-10-16T02:07:44;17.10;99.90
2162;DHT22;1087;50.226;8.682;2022-10-16T02:10:10;17.20;99.90
2162;DHT22;1087;50.226;8.682;2022-10-16T02:12:39;17.20;99.90
2162;DHT22;1087;50.226;8.682;2022-10-16T02:15:06;17.20;99.90
2162;DHT22;1087;50.226;8.682;2022-10-16T02:17:32;17.10;99.90
2162;DHT22;1087;50.226;8.682;2022-10-16T02:19:59;17.20;99.90
2162;DHT22;1087;50.226;8.682;2022-10-16T02:22:39;17.20;99.90
2162;DHT22;1087;50.226;8.682;2022-10-16T02:25:31;17.20;99.90
2162;DHT22;1087;50.226;8.682;2022-10-16T02:32:58;17.20;99.90
2162;DHT22;1087;50.226;8.682;2022-10-16T02:35:25;17.20;99.90
2162;DHT22;1087;50.226;8.682;2022-10-16T02:37:52;17.20;99.90
2162;DHT22;1087;50.226;8.682;2022-10-16T02:40:19;17.20;99.90
2162;DHT22;1087;50.226;8.682;2022-10-16T02:42:49;17.10;99.90
2162;DHT22;1087;50.226;8.682;2022-10-16T02:45:15;17.10;99.90
2162;DHT22;1087;50.226;8.682;2022-10-16T02:47:40;17.10;99.90
2162;DHT22;1087;50.226;8.682;2022-10-16T02:50:06;17.10;99.90
2162;DHT22;1087;50.226;8.682;2022-10-16T02:52:32;17.20;99.90
2162;DHT22;1087;50.226;8.682;2022-10-16T02:54:57;17.10;99.90
2162;DHT22;1087;50.226;8.682;2022-10-16T02:57:23;17.20;99.90
2162;DHT22;1087;50.226;8.682;2022-10-16T02:59:48;17.20;99.90
2162;DHT22;1087;50.226;8.682;2022-10-16T03:02:14;17.10;99.90
2162;DHT22;1087;50.226;8.682;2022-10-16T03:04:39;17.20;99.90
2162;DHT22;1087;50.226;8.682;2022-10-16T03:07:05;17.20;99.90
2162;DHT22;1087;50.226;8.682;2022-10-16T03:09:30;17.20;99.90
2162;DHT22;1087;50.226;8.682;2022-10-16T03:11:56;17.20;99.90
2162;DHT22;1087;50.226;8.682;2022-10-16T03:14:21;17.30;99.90
2162;DHT22;1087;50.226;8.682;2022-10-16T03:16:47;17.20;99.90
2162;DHT22;1087;50.226;8.682;2022-10-16T03:19:12;17.20;99.90
2162;DHT22;1087;50.226;8.682;2022-10-16T03:21:38;17.20;99.90
2162;DHT22;1087;50.226;8.682;2022-10-16T03:24:04;17.10;99.90
2162;DHT22;1087;50.226;8.682;2022-10-16T03:26:29;17.00;99.90
2162;DHT22;1087;50.226;8.682;2022-10-16T03:28:55;17.10;99.90
2162;DHT22;1087;50.226;8.682;2022-10-16T03:31:20;17.10;99.90
2162;DHT22;1087;50.226;8.682;2022-10-16T03:33:46;17.10;99.90
2162;DHT22;1087;50.226;8.682;2022-10-16T03:36:11;17.10;99.90
2162;DHT22;1087;50.226;8.682;2022-10-16T03:38:37;17.10;99.90
2162;DHT22;1087;50.226;8.682;2022-10-16T03:41:02;17.20;99.90
2162;DHT22;1087;50.226;8.682;2022-10-16T03:43:29;17.20;99.90
2162;DHT22;1087;50.226;8.682;2022-10-16T03:45:54;17.20;99.90
2162;DHT22;1087;50.226;8.682;2022-10-16T03:48:20;17.10;99.90
2162;DHT22;1087;50.226;8.682;2022-10-16T03:50:45;17.10;99.90
2162;DHT22;1087;50.226;8.682;2022-10-16T03:53:13;17.20;99.90
2162;DHT22;1087;50.226;8.682;2022-10-16T03:55:41;17.20;99.90
2162;DHT22;1087;50.226;8.682;2022-10-16T03:58:07;17.20;99.90
2162;DHT22;1087;50.226;8.682;2022-10-16T04:00:33;17.20;99.90
2162;DHT22;1087;50.226;8.682;2022-10-16T04:02:59;17.10;99.90
2162;DHT22;1087;50.226;8.682;2022-10-16T04:05:25;17.10;99.90
2162;DHT22;1087;50.226;8.682;2022-10-16T04:07:50;17.10;99.90
2162;DHT22;1087;50.226;8.682;2022-10-16T04:10:16;17.20;99.90
2162;DHT22;1087;50.226;8.682;2022-10-16T04:12:42;17.10;99.90
2162;DHT22;1087;50.226;8.682;2022-10-16T04:15:08;17.10;99.90
2162;DHT22;1087;50.226;8.682;2022-10-16T04:17:33;17.10;99.90
2162;DHT22;1087;50.226;8.682;2022-10-16T04:19:59;17.10;99.90
2162;DHT22;1087;50.226;8.682;2022-10-16T04:22:24;17.00;99.90
2162;DHT22;1087;50.226;8.682;2022-10-16T04:24:50;17.10;99.90
2162;DHT22;1087;50.226;8.682;2022-10-16T04:27:16;17.10;99.90
2162;DHT22;1087;50.226;8.682;2022-10-16T04:29:41;17.10;99.90
2162;DHT22;1087;50.226;8.682;2022-10-16T04:32:10;17.10;99.90
2162;DHT22;1087;50.226;8.682;2022-10-16T04:34:36;17.10;99.90
2162;DHT22;1087;50.226;8.682;2022-10-16T04:37:03;17.10;99.90
2162;DHT22;1087;50.226;8.682;2022-10-16T04:39:28;17.10;99.90
2162;DHT22;1087;50.226;8.682;2022-10-16T04:41:54;17.00;99.90
2162;DHT22;1087;50.226;8.682;2022-10-16T04:44:19;17.00;99.90
2162;DHT22;1087;50.226;8.682;2022-10-16T04:46:45;17.10;99.90
2162;DHT22;1087;50.226;8.682;2022-10-16T04:49:10;17.00;99.90
2162;DHT22;1087;50.226;8.682;2022-10-16T04:51:36;17.00;99.90
2162;DHT22;1087;50.226;8.682;2022-10-16T04:54:01;17.10;99.90
2162;DHT22;1087;50.226;8.682;2022-10-16T04:56:27;17.10;99.90
2162;DHT22;1087;50.226;8.682;2022-10-16T04:58:52;17.10;99.90
2162;DHT22;1087;50.226;8.682;2022-10-16T05:01:18;17.10;99.90
2162;DHT22;1087;50.226;8.682;2022-10-16T05:03:44;17.10;99.90
2162;DHT22;1087;50.226;8.682;2022-10-16T05:06:09;17.10;99.90
2162;DHT22;1087;50.226;8.682;2022-10-16T05:08:35;17.10;99.90
2162;DHT22;1087;50.226;8.682;2022-10-16T05:11:00;17.10;99.90
2162;DHT22;1087;50.226;8.682;2022-10-16T05:13:26;17.10;99.90
2162;DHT22;1087;50.226;8.682;2022-10-16T05:15:52;17.10;99.90
2162;DHT22;1087;50.226;8.682;2022-10-16T05:18:17;17.10;99.90
2162;DHT22;1087;50.226;8.682;2022-10-16T05:20:43;17.10;99.90
2162;DHT22;1087;50.226;8.682;2022-10-16T05:23:09;17.10;99.90
2162;DHT22;1087;50.226;8.682;2022-10-16T05:25:37;17.10;99.90
2162;DHT22;1087;50.226;8.682;2022-10-16T05:28:03;17.10;99.90
2162;DHT22;1087;50.226;8.682;2022-10-16T05:30:28;17.10;99.90
2162;DHT22;1087;50.226;8.682;2022-10-16T05:32:54;17.10;99.90
2162;DHT22;1087;50.226;8.682;2022-10-16T05:35:20;17.20;99.90
2162;DHT22;1087;50.226;8.682;2022-10-16T05:37:47;17.20;99.90
2162;DHT22;1087;50.226;8.682;2022-10-16T05:40:13;17.20;99.90
2162;DHT22;1087;50.226;8.682;2022-10-16T05:42:39;17.20;99.90
2162;DHT22;1087;50.226;8.682;2022-10-16T05:45:06;17.10;99.90
2162;DHT22;1087;50.226;8.682;2022-10-16T05:47:32;17.10;99.90
2162;DHT22;1087;50.226;8.682;2022-10-16T05:49:57;17.10;99.90
2162;DHT22;1087;50.226;8.682;2022-10-16T05:52:23;17.10;99.90
2162;DHT22;1087;50.226;8.682;2022-10-16T05:54:48;17.10;99.90
2162;DHT22;1087;50.226;8.682;2022-10-16T05:57:14;17.10;99.90
2162;DHT22;1087;50.226;8.682;2022-10-16T05:59:40;17.10;99.90
2162;DHT22;1087;50.226;8.682;2022-10-16T06:02:05;17.10;99.90
2162;DHT22;1087;50.226;8.682;2022-10-16T06:04:31;17.10;99.90
2162;DHT22;1087;50.226;8.682;2022-10-16T06:07:00;17.10;99.90
2162;DHT22;1087;50.226;8.682;2022-10-16T06:09:28;17.10;99.90
2162;DHT22;1087;50.226;8.682;2022-10-16T06:11:53;17.10;99.90
2162;DHT22;1087;50.226;8.682;2022-10-16T06:14:19;17.10;99.90
2162;DHT22;1087;50.226;8.682;2022-10-16T06:16:44;17.10;99.90
2162;DHT22;1087;50.226;8.682;2022-10-16T06:19:10;17.10;99.90
2162;DHT22;1087;50.226;8.682;2022-10-16T06:21:35;17.10;99.90
2162;DHT22;1087;50.226;8.682;2022-10-16T06:24:01;17.10;99.90
2162;DHT22;1087;50.226;8.682;2022-10-16T06:26:28;17.10;99.90
2162;DHT22;1087;50.226;8.682;2022-10-16T06:28:56;17.10;99.90
2162;DHT22;1087;50.226;8.682;2022-10-16T06:31:23;17.10;99.90
2162;DHT22;1087;50.226;8.682;2022-10-16T06:33:53;17.10;99.90
2162;DHT22;1087;50.226;8.682;2022-10-16T06:36:19;17.10;99.90
2162;DHT22;1087;50.226;8.682;2022-10-16T06:38:46;17.10;99.90
2162;DHT22;1087;50.226;8.682;2022-10-16T06:41:14;17.10;99.90
2162;DHT22;1087;50.226;8.682;2022-10-16T06:43:40;17.10;99.90
2162;DHT22;1087;50.226;8.682;2022-10-16T06:46:07;17.10;99.90
2162;DHT22;1087;50.226;8.682;2022-10-16T06:48:34;17.20;99.90
2162;DHT22;1087;50.226;8.682;2022-10-16T06:51:14;17.20;99.90
2162;DHT22;1087;50.226;8.682;2022-10-16T06:53:45;17.10;99.90
2162;DHT22;1087;50.226;8.682;2022-10-16T06:56:17;17.20;99.90
2162;DHT22;1087;50.226;8.682;2022-10-16T06:58:43;17.20;99.90
2162;DHT22;1087;50.226;8.682;2022-10-16T07:01:10;17.20;99.90
2162;DHT22;1087;50.226;8.682;2022-10-16T07:03:37;17.20;99.90
2162;DHT22;1087;50.226;8.682;2022-10-16T07:06:05;17.20;99.90
2162;DHT22;1087;50.226;8.682;2022-10-16T07:08:32;17.20;99.90
2162;DHT22;1087;50.226;8.682;2022-10-16T07:11:02;17.10;99.90
2162;DHT22;1087;50.226;8.682;2022-10-16T07:13:28;17.20;99.90
2162;DHT22;1087;50.226;8.682;2022-10-16T07:15:54;17.20;99.90
2162;DHT22;1087;50.226;8.682;2022-10-16T07:18:19;17.20;99.90
2162;DHT22;1087;50.226;8.682;2022-10-16T07:20:45;17.20;99.90
2162;DHT22;1087;50.226;8.682;2022-10-16T07:23:10;17.20;99.90
2162;DHT22;1087;50.226;8.682;2022-10-16T07:25:36;17.10;99.90
2162;DHT22;1087;50.226;8.682;2022-10-16T07:28:01;17.10;99.90
2162;DHT22;1087;50.226;8.682;2022-10-16T07:30:27;17.10;99.90
2162;DHT22;1087;50.226;8.682;2022-10-16T07:32:52;17.10;99.90
2162;DHT22;1087;50.226;8.682;2022-10-16T07:35:18;17.20;99.90
2162;DHT22;1087;50.226;8.682;2022-10-16T07:37:46;17.20;99.90
2162;DHT22;1087;50.226;8.682;2022-10-16T07:40:12;17.20;99.90
2162;DHT22;1087;50.226;8.682;2022-10-16T07:42:38;17.20;99.90
2162;DHT22;1087;50.226;8.682;2022-10-16T07:45:04;17.20;99.90
2162;DHT22;1087;50.226;8.682;2022-10-16T07:47:29;17.20;99.90
2162;DHT22;1087;50.226;8.682;2022-10-16T07:49:55;17.10;99.90
2162;DHT22;1087;50.226;8.682;2022-10-16T07:52:20;17.20;99.90
2162;DHT22;1087;50.226;8.682;2022-10-16T07:54:46;17.20;99.90
2162;DHT22;1087;50.226;8.682;2022-10-16T07:57:11;17.20;99.90
2162;DHT22;1087;50.226;8.682;2022-10-16T07:59:37;17.20;99.90
2162;DHT22;1087;50.226;8.682;2022-10-16T08:02:02;17.30;99.90
2162;DHT22;1087;50.226;8.682;2022-10-16T08:04:28;17.30;99.90
2162;DHT22;1087;50.226;8.682;2022-10-16T08:06:53;17.20;99.90
2162;DHT22;1087;50.226;8.682;2022-10-16T08:09:20;17.20;99.90
2162;DHT22;1087;50.226;8.682;2022-10-16T08:11:45;17.30;99.90
2162;DHT22;1087;50.226;8.682;2022-10-16T08:14:11;17.20;99.90
2162;DHT22;1087;50.226;8.682;2022-10-16T08:16:36;17.20;99.90
2162;DHT22;1087;50.226;8.682;2022-10-16T08:19:02;17.20;99.90
2162;DHT22;1087;50.226;8.682;2022-10-16T08:21:27;17.30;99.90
2162;DHT22;1087;50.226;8.682;2022-10-16T08:23:53;17.30;99.90
2162;DHT22;1087;50.226;8.682;2022-10-16T08:26:20;17.30;99.90
2162;DHT22;1087;50.226;8.682;2022-10-16T08:28:45;17.30;99.90
2162;DHT22;1087;50.226;8.682;2022-10-16T08:31:13;17.30;99.90
2162;DHT22;1087;50.226;8.682;2022-10-16T08:33:41;17.30;99.90
2162;DHT22;1087;50.226;8.682;2022-10-16T08:36:07;17.20;99.90
2162;DHT22;1087;50.226;8.682;2022-10-16T08:38:33;17.20;99.90
2162;DHT22;1087;50.226;8.682;2022-10-16T08:43:59;17.30;99.90
2162;DHT22;1087;50.226;8.682;2022-10-16T08:46:44;17.30;99.90
2162;DHT22;1087;50.226;8.682;2022-10-16T08:49:15;17.30;99.90
2162;DHT22;1087;50.226;8.682;2022-10-16T08:51:40;17.30;99.90
2162;DHT22;1087;50.226;8.682;2022-10-16T08:54:22;17.30;99.90
2162;DHT22;1087;50.226;8.682;2022-10-16T08:56:48;17.40;99.90
2162;DHT22;1087;50.226;8.682;2022-10-16T08:59:15;17.40;99.90
2162;DHT22;1087;50.226;8.682;2022-10-16T09:01:44;17.40;99.90
2162;DHT22;1087;50.226;8.682;2022-10-16T09:04:40;17.30;99.90
2162;DHT22;1087;50.226;8.682;2022-10-16T09:10:03;17.40;99.90
2162;DHT22;1087;50.226;8.682;2022-10-16T09:12:40;17.40;99.90
2162;DHT22;1087;50.226;8.682;2022-10-16T09:15:33;17.40;99.90
2162;DHT22;1087;50.226;8.682;2022-10-16T09:23:51;17.40;99.90
2162;DHT22;1087;50.226;8.682;2022-10-16T09:26:18;17.40;99.90
2162;DHT22;1087;50.226;8.682;2022-10-16T09:28:44;17.40;99.90
2162;DHT22;1087;50.226;8.682;2022-10-16T09:31:19;17.40;99.90
2162;DHT22;1087;50.226;8.682;2022-10-16T09:33:50;17.40;99.90
2162;DHT22;1087;50.226;8.682;2022-10-16T09:36:16;17.40;99.90
2162;DHT22;1087;50.226;8.682;2022-10-16T09:38:43;17.40;99.90
2162;DHT22;1087;50.226;8.682;2022-10-16T09:41:20;17.40;99.90
2162;DHT22;1087;50.226;8.682;2022-10-16T09:43:55;17.50;99.90
2162;DHT22;1087;50.226;8.682;2022-10-16T09:46:33;17.40;99.90
2162;DHT22;1087;50.226;8.682;2022-10-16T09:49:02;17.40;99.90
2162;DHT22;1087;50.226;8.682;2022-10-16T09:51:34;17.40;99.90
2162;DHT22;1087;50.226;8.682;2022-10-16T09:56:36;17.40;99.90
2162;DHT22;1087;50.226;8.682;2022-10-16T09:59:16;17.40;99.90
2162;DHT22;1087;50.226;8.682;2022-10-16T10:01:49;17.50;99.90
2162;DHT22;1087;50.226;8.682;2022-10-16T10:04:19;17.50;99.90
2162;DHT22;1087;50.226;8.682;2022-10-16T10:12:00;17.60;99.90
2162;DHT22;1087;50.226;8.682;2022-10-16T10:14:36;17.60;99.90
2162;DHT22;1087;50.226;8.682;2022-10-16T10:17:12;17.60;99.90
2162;DHT22;1087;50.226;8.682;2022-10-16T10:20:00;17.60;99.90
2162;DHT22;1087;50.226;8.682;2022-10-16T10:28:16;17.60;99.90
2162;DHT22;1087;50.226;8.682;2022-10-16T10:30:56;17.70;99.90
2162;DHT22;1087;50.226;8.682;2022-10-16T10:33:42;17.70;99.90
2162;DHT22;1087;50.226;8.682;2022-10-16T10:42:04;17.80;99.90
2162;DHT22;1087;50.226;8.682;2022-10-16T10:50:12;18.00;99.90
2162;DHT22;1087;50.226;8.682;2022-10-16T10:55:39;18.00;99.90
2162;DHT22;1087;50.226;8.682;2022-10-16T11:03:37;18.10;99.90
2162;DHT22;1087;50.226;8.682;2022-10-16T11:06:20;18.40;99.90
2162;DHT22;1087;50.226;8.682;2022-10-16T11:09:00;18.40;99.90
2162;DHT22;1087;50.226;8.682;2022-10-16T11:12:16;18.50;99.90
2162;DHT22;1087;50.226;8.682;2022-10-16T11:14:28;18.50;99.90
2162;DHT22;1087;50.226;8.682;2022-10-16T11:16:59;18.50;99.90
2162;DHT22;1087;50.226;8.682;2022-10-16T11:25:24;18.80;99.90
2162;DHT22;1087;50.226;8.682;2022-10-16T11:28:07;18.70;99.90
2162;DHT22;1087;50.226;8.682;2022-10-16T11:30:43;18.80;99.90
2162;DHT22;1087;50.226;8.682;2022-10-16T11:36:21;18.80;99.90
2162;DHT22;1087;50.226;8.682;2022-10-16T11:39:03;18.90;99.90
2162;DHT22;1087;50.226;8.682;2022-10-16T11:46:34;19.00;99.90
2162;DHT22;1087;50.226;8.682;2022-10-16T11:49:16;18.90;99.90
2162;DHT22;1087;50.226;8.682;2022-10-16T11:57:53;19.00;99.90
2162;DHT22;1087;50.226;8.682;2022-10-16T12:00:45;19.10;99.90
2162;DHT22;1087;50.226;8.682;2022-10-16T12:03:14;19.10;99.90
2162;DHT22;1087;50.226;8.682;2022-10-16T12:06:13;19.20;99.90
2162;DHT22;1087;50.226;8.682;2022-10-16T12:08:40;19.20;99.90
2162;DHT22;1087;50.226;8.682;2022-10-16T12:11:53;19.20;99.90
2162;DHT22;1087;50.226;8.682;2022-10-16T12:16:56;19.20;99.90
2162;DHT22;1087;50.226;8.682;2022-10-16T12:19:24;19.10;99.90
2162;DHT22;1087;50.226;8.682;2022-10-16T12:21:51;19.20;99.90
2162;DHT22;1087;50.226;8.682;2022-10-16T12:27:00;19.20;99.90
2162;DHT22;1087;50.226;8.682;2022-10-16T12:29:36;19.20;99.90
2162;DHT22;1087;50.226;8.682;2022-10-16T12:32:20;19.10;99.90
2162;DHT22;1087;50.226;8.682;2022-10-16T12:34:47;19.20;99.90
2162;DHT22;1087;50.226;8.682;2022-10-16T12:37:29;19.20;99.90
2162;DHT22;1087;50.226;8.682;2022-10-16T12:39:56;19.40;99.90
2162;DHT22;1087;50.226;8.682;2022-10-16T12:42:30;19.40;99.90
2162;DHT22;1087;50.226;8.682;2022-10-16T12:44:56;19.40;99.90
2162;DHT22;1087;50.226;8.682;2022-10-16T12:49:55;19.50;99.90
2162;DHT22;1087;50.226;8.682;2022-10-16T12:52:36;19.50;99.90
2162;DHT22;1087;50.226;8.682;2022-10-16T12:55:04;19.60;99.90
2162;DHT22;1087;50.226;8.682;2022-10-16T12:57:39;19.60;99.90
2162;DHT22;1087;50.226;8.682;2022-10-16T13:00:26;19.60;99.90
2162;DHT22;1087;50.226;8.682;2022-10-16T13:08:27;19.60;99.90
2162;DHT22;1087;50.226;8.682;2022-10-16T13:10:58;19.60;99.90
2162;DHT22;1087;50.226;8.682;2022-10-16T13:19:08;19.40;99.90
2162;DHT22;1087;50.226;8.682;2022-10-16T13:22:04;19.40;99.90
2162;DHT22;1087;50.226;8.682;2022-10-16T13:24:41;19.30;99.90
2162;DHT22;1087;50.226;8.682;2022-10-16T13:30:16;19.30;99.90
2162;DHT22;1087;50.226;8.682;2022-10-16T13:35:35;19.30;99.90
2162;DHT22;1087;50.226;8.682;2022-10-16T13:38:05;19.40;99.90
2162;DHT22;1087;50.226;8.682;2022-10-16T13:40:31;19.40;99.90
2162;DHT22;1087;50.226;8.682;2022-10-16T13:42:59;19.40;99.90
2162;DHT22;1087;50.226;8.682;2022-10-16T13:45:26;19.40;99.90
2162;DHT22;1087;50.226;8.682;2022-10-16T13:48:05;19.40;99.90
2162;DHT22;1087;50.226;8.682;2022-10-16T13:50:31;19.40;99.90
2162;DHT22;1087;50.226;8.682;2022-10-16T13:53:09;19.40;99.90
2162;DHT22;1087;50.226;8.682;2022-10-16T13:55:38;19.40;99.90
2162;DHT22;1087;50.226;8.682;2022-10-16T13:58:10;19.40;99.90
2162;DHT22;1087;50.226;8.682;2022-10-16T14:00:37;19.40;99.90
2162;DHT22;1087;50.226;8.682;2022-10-16T14:03:11;19.40;99.90
2162;DHT22;1087;50.226;8.682;2022-10-16T14:06:05;19.30;99.90
2162;DHT22;1087;50.226;8.682;2022-10-16T14:08:29;19.30;99.90
2162;DHT22;1087;50.226;8.682;2022-10-16T14:11:00;19.30;99.90
2162;DHT22;1087;50.226;8.682;2022-10-16T14:13:33;19.30;99.90
2162;DHT22;1087;50.226;8.682;2022-10-16T14:16:02;19.30;99.90
2162;DHT22;1087;50.226;8.682;2022-10-16T14:18:28;19.30;99.90
2162;DHT22;1087;50.226;8.682;2022-10-16T14:20:54;19.20;99.90
2162;DHT22;1087;50.226;8.682;2022-10-16T14:23:32;19.30;99.90
2162;DHT22;1087;50.226;8.682;2022-10-16T14:26:12;19.20;99.90
2162;DHT22;1087;50.226;8.682;2022-10-16T14:28:39;19.20;99.90
2162;DHT22;1087;50.226;8.682;2022-10-16T14:31:29;19.20;99.90
2162;DHT22;1087;50.226;8.682;2022-10-16T14:33:55;19.20;99.90
2162;DHT22;1087;50.226;8.682;2022-10-16T14:36:21;19.20;99.90
2162;DHT22;1087;50.226;8.682;2022-10-16T14:39:00;19.30;99.90
2162;DHT22;1087;50.226;8.682;2022-10-16T14:41:27;19.20;99.90
2162;DHT22;1087;50.226;8.682;2022-10-16T14:43:55;19.20;99.90
2162;DHT22;1087;50.226;8.682;2022-10-16T14:46:38;19.20;99.90
2162;DHT22;1087;50.226;8.682;2022-10-16T14:49:17;19.20;99.90
2162;DHT22;1087;50.226;8.682;2022-10-16T14:51:43;19.20;99.90
2162;DHT22;1087;50.226;8.682;2022-10-16T14:54:11;19.20;99.90
2162;DHT22;1087;50.226;8.682;2022-10-16T14:56:57;19.20;99.90
2162;DHT22;1087;50.226;8.682;2022-10-16T14:59:41;19.20;99.90
2162;DHT22;1087;50.226;8.682;2022-10-16T15:02:32;19.20;99.90
2162;DHT22;1087;50.226;8.682;2022-10-16T15:05:28;19.20;99.90
2162;DHT22;1087;50.226;8.682;2022-10-16T15:07:55;19.20;99.90
2162;DHT22;1087;50.226;8.682;2022-10-16T15:10:24;19.10;99.90
2162;DHT22;1087;50.226;8.682;2022-10-16T15:12:50;19.10;99.90
2162;DHT22;1087;50.226;8.682;2022-10-16T15:18:02;19.20;99.90
2162;DHT22;1087;50.226;8.682;2022-10-16T15:20:33;19.20;99.90
2162;DHT22;1087;50.226;8.682;2022-10-16T15:23:05;19.20;99.90
2162;DHT22;1087;50.226;8.682;2022-10-16T15:25:42;19.30;99.90
2162;DHT22;1087;50.226;8.682;2022-10-16T15:28:09;19.30;99.90
2162;DHT22;1087;50.226;8.682;2022-10-16T15:30:36;19.30;99.90
2162;DHT22;1087;50.226;8.682;2022-10-16T15:33:03;19.20;99.90
2162;DHT22;1087;50.226;8.682;2022-10-16T15:35:29;19.30;99.90
2162;DHT22;1087;50.226;8.682;2022-10-16T15:37:55;19.30;99.90
2162;DHT22;1087;50.226;8.682;2022-10-16T15:40:21;19.30;99.90
2162;DHT22;1087;50.226;8.682;2022-10-16T15:42:48;19.30;99.90
2162;DHT22;1087;50.226;8.682;2022-10-16T15:45:14;19.30;99.90
2162;DHT22;1087;50.226;8.682;2022-10-16T15:47:41;19.20;99.90
2162;DHT22;1087;50.226;8.682;2022-10-16T15:50:08;19.20;99.90
2162;DHT22;1087;50.226;8.682;2022-10-16T15:52:34;19.20;99.90
2162;DHT22;1087;50.226;8.682;2022-10-16T15:55:00;19.20;99.90
2162;DHT22;1087;50.226;8.682;2022-10-16T15:57:28;19.20;99.90
2162;DHT22;1087;50.226;8.682;2022-10-16T15:59:53;19.20;99.90
2162;DHT22;1087;50.226;8.682;2022-10-16T16:02:19;19.30;99.90
2162;DHT22;1087;50.226;8.682;2022-10-16T16:04:45;19.20;99.90
2162;DHT22;1087;50.226;8.682;2022-10-16T16:07:10;19.20;99.90
2162;DHT22;1087;50.226;8.682;2022-10-16T16:09:36;19.20;99.90
2162;DHT22;1087;50.226;8.682;2022-10-16T16:12:01;19.20;99.90
2162;DHT22;1087;50.226;8.682;2022-10-16T16:14:27;19.30;99.90
2162;DHT22;1087;50.226;8.682;2022-10-16T16:16:54;19.30;99.90
2162;DHT22;1087;50.226;8.682;2022-10-16T16:19:20;19.30;99.90
2162;DHT22;1087;50.226;8.682;2022-10-16T16:21:49;19.20;99.90
2162;DHT22;1087;50.226;8.682;2022-10-16T16:24:15;19.20;99.90
2162;DHT22;1087;50.226;8.682;2022-10-16T16:26:41;19.20;99.90
2162;DHT22;1087;50.226;8.682;2022-10-16T16:29:11;19.20;99.90
2162;DHT22;1087;50.226;8.682;2022-10-16T16:31:41;19.20;99.90
2162;DHT22;1087;50.226;8.682;2022-10-16T16:34:07;19.20;99.90
2162;DHT22;1087;50.226;8.682;2022-10-16T16:36:33;19.20;99.90
2162;DHT22;1087;50.226;8.682;2022-10-16T16:38:59;19.10;99.90
2162;DHT22;1087;50.226;8.682;2022-10-16T16:41:27;19.10;99.90
2162;DHT22;1087;50.226;8.682;2022-10-16T16:43:53;19.10;99.90
2162;DHT22;1087;50.226;8.682;2022-10-16T16:46:19;19.10;99.90
2162;DHT22;1087;50.226;8.682;2022-10-16T16:48:45;19.10;99.90
2162;DHT22;1087;50.226;8.682;2022-10-16T16:51:14;19.10;99.90
2162;DHT22;1087;50.226;8.682;2022-10-16T16:53:46;19.10;99.90
2162;DHT22;1087;50.226;8.682;2022-10-16T16:56:13;19.10;99.90
2162;DHT22;1087;50.226;8.682;2022-10-16T16:58:38;19.10;99.90
2162;DHT22;1087;50.226;8.682;2022-10-16T17:01:04;19.10;99.90
2162;DHT22;1087;50.226;8.682;2022-10-16T17:03:32;19.10;99.90
2162;DHT22;1087;50.226;8.682;2022-10-16T17:06:00;19.10;99.90
2162;DHT22;1087;50.226;8.682;2022-10-16T17:08:26;19.10;99.90
2162;DHT22;1087;50.226;8.682;2022-10-16T17:10:53;19.10;99.90
2162;DHT22;1087;50.226;8.682;2022-10-16T17:13:28;19.10;99.90
2162;DHT22;1087;50.226;8.682;2022-10-16T17:15:54;19.10;99.90
2162;DHT22;1087;50.226;8.682;2022-10-16T17:18:21;19.10;99.90
2162;DHT22;1087;50.226;8.682;2022-10-16T17:20:48;19.10;99.90
2162;DHT22;1087;50.226;8.682;2022-10-16T17:23:14;19.10;99.90
2162;DHT22;1087;50.226;8.682;2022-10-16T17:25:40;19.10;99.90
2162;DHT22;1087;50.226;8.682;2022-10-16T17:28:08;19.00;99.90
2162;DHT22;1087;50.226;8.682;2022-10-16T17:30:34;19.00;99.90
2162;DHT22;1087;50.226;8.682;2022-10-16T17:33:00;19.00;99.90
2162;DHT22;1087;50.226;8.682;2022-10-16T17:35:26;19.00;99.90
2162;DHT22;1087;50.226;8.682;2022-10-16T17:37:52;19.00;99.90
2162;DHT22;1087;50.226;8.682;2022-10-16T17:40:19;19.00;99.90
2162;DHT22;1087;50.226;8.682;2022-10-16T17:42:45;19.00;99.90
2162;DHT22;1087;50.226;8.682;2022-10-16T17:45:12;19.00;99.90
2162;DHT22;1087;50.226;8.682;2022-10-16T17:47:38;19.00;99.90
2162;DHT22;1087;50.226;8.682;2022-10-16T17:50:06;18.90;99.90
2162;DHT22;1087;50.226;8.682;2022-10-16T17:52:32;18.90;99.90
2162;DHT22;1087;50.226;8.682;2022-10-16T17:54:58;19.00;99.90
2162;DHT22;1087;50.226;8.682;2022-10-16T17:57:23;18.90;99.90
2162;DHT22;1087;50.226;8.682;2022-10-16T17:59:49;18.90;99.90
2162;DHT22;1087;50.226;8.682;2022-10-16T18:02:15;18.90;99.90